Terminal Aerodrome Forecast
Issued by NWS Bismarck, ND

Home | Current Version | Previous Version | Graphics & Text | Print | Product List | Glossary On
Versions: 1 2 3 4 5 6 7 8 9 10 11 12 13 14 15 16
000
FTUS43 KBIS 031100
TAFBIS
TAF
KBIS 031120Z 0312/0412 33022G30KT P6SM SCT018 OVC080
     FM031600 31020G26KT P6SM BKN080
     FM040100 31011KT P6SM SCT100=

USA.gov is the U.S. government's official web portal to all federal, state and local government web resources and services.